Airfield :







YOU CAN JOIN US ON...

 
LOGIN :

Register | Disclaimer

   EN    FR    IT 

 









Legend :    VFR   Marginal VFR   IFR   Intensive IFR   Very Intensive IFR
Visi :
Ceiling :
>= 8 km
>= 3000ft
5 to 8 km
1000 to 3000 ft
1500m to 5 km
500 to 1000 ft
800 to 1500m
200 to 500 ft
< 800m
< 200 ft
Symbols :   Thunderstorms  Fog  Heavy snow  Heavy precipitations  Wind > 20 kt






- Airport Elevation : 328 ft


KGFL - Floyd Bennett Memorial

CURRENT METAR :
  • 110953Z AUTO 06006KT 4SM +RA BR OVC026 22/21 A2959 RMK AO2 SLP016 P0016 T02170206

EXPIRED METARs :
  • 110944Z AUTO 08003KT 4SM +RA BR FEW023 OVC028 22/21 A2959 RMK AO2 P0009 T02170206
  • 110853Z AUTO 05008KT 8SM +RA OVC037 23/21 A2960 RMK AO2 RAB0756E13B32 SLP020 P0004 60006 T02280206 56033
  • 110753Z AUTO 04009KT 10SM BKN042 OVC055 23/21 A2962 RMK AO2 SLP027 T02330206

TAF KGFL
Valid from the 11 at 06:00 until the 12 at 06:00 UTC


110535Z 1106/1206 06008KT P6SM VCSH SCT015 OVC035
TEMPO 1108/1112 3SM -SHRA OVC015
FM111500 20010KT P6SM VCSH SCT020 BKN040
PROB30 1118/1124 3SM -TSRA BR BKN020CB
FM120000 20003KT P6SM VCSH SCT020 OVC040
KZBW FIR / North America



MET'MAP, your aeronautical weather chart ! - Copyright ORBIFLY December 2007 - Disclaimer

ORBIFLY MET'MAP TEAM :

Programming & Development : Alexandra Zaïnal
Concept & original design : Baudouin d'Aumeries
Assistance for programming : Marc-Olivier Méhu
Technical & hardware support : Manuel Goepfert

Contact : metmap@orbifly.com




SOURCES & CREDITS :

   NOAA